VRG312 SBFZ-SBEG
Flight info
| Callsign | VRG312 |
|---|---|
| Flight time | 2h 56m |
| Altitude | 36000 |
| Route | UTGOT UZ12 NIRNA DCT KULAB |
| Aircraft | B742/H-SDFHIRWXY/L |
Departure
| Time | 2026-05-08 12:38 |
|---|---|
| Airport | Pinto Martins International Airport (SBFZ) |
Arrival
| Time | 2026-05-08 15:35 |
|---|---|
| Airport | Eduardo Gomes International Airport (SBEG) |
| Time | Latitude | Longitude | Altitude | Speed | Heading |
|---|---|---|---|---|---|
| 2026-05-08 12:09 | -3.77760 | -38.54204 | 96 ft | 0 kts | 128° |
| 2026-05-08 12:28 | -3.77756 | -38.54210 | 96 ft | 2 kts | 129° |
| 2026-05-08 12:28 | -3.77746 | -38.54221 | 95 ft | 2 kts | 128° |
| 2026-05-08 12:28 | -3.77737 | -38.54233 | 95 ft | 2 kts | 129° |
| 2026-05-08 12:28 | -3.77727 | -38.54245 | 95 ft | 2 kts | 128° |
| 2026-05-08 12:29 | -3.77718 | -38.54257 | 95 ft | 2 kts | 135° |
| 2026-05-08 12:29 | -3.77705 | -38.54265 | 94 ft | 2 kts | 162° |
| 2026-05-08 12:29 | -3.77690 | -38.54268 | 94 ft | 2 kts | 171° |
| 2026-05-08 12:29 | -3.77675 | -38.54271 | 94 ft | 2 kts | 168° |
| 2026-05-08 12:30 | -3.77660 | -38.54274 | 94 ft | 2 kts | 174° |
| 2026-05-08 12:30 | -3.77646 | -38.54270 | 94 ft | 2 kts | 215° |
| 2026-05-08 12:30 | -3.77637 | -38.54258 | 94 ft | 2 kts | 251° |
| 2026-05-08 12:30 | -3.77636 | -38.54245 | 94 ft | 0 kts | 283° |
| 2026-05-08 12:31 | -3.77637 | -38.54242 | 95 ft | 0 kts | 285° |
| 2026-05-08 12:33 | -3.77636 | -38.54246 | 94 ft | 2 kts | 285° |
| 2026-05-08 12:33 | -3.77623 | -38.54293 | 94 ft | 10 kts | 285° |
| 2026-05-08 12:33 | -3.77591 | -38.54362 | 93 ft | 10 kts | 319° |
| 2026-05-08 12:34 | -3.77526 | -38.54382 | 93 ft | 9 kts | 345° |
| 2026-05-08 12:34 | -3.77483 | -38.54429 | 92 ft | 9 kts | 288° |
| 2026-05-08 12:34 | -3.77460 | -38.54492 | 92 ft | 8 kts | 303° |
| 2026-05-08 12:34 | -3.77418 | -38.54510 | 91 ft | 0 kts | 8° |
| 2026-05-08 12:36 | -3.77414 | -38.54509 | 91 ft | 1 kts | 8° |
| 2026-05-08 12:36 | -3.77385 | -38.54504 | 91 ft | 6 kts | 12° |
| 2026-05-08 12:36 | -3.77330 | -38.54492 | 91 ft | 8 kts | 17° |
| 2026-05-08 12:36 | -3.77308 | -38.54471 | 91 ft | 2 kts | 86° |
| 2026-05-08 12:37 | -3.77309 | -38.54463 | 92 ft | 0 kts | 105° |
| 2026-05-08 12:37 | -3.77317 | -38.54435 | 92 ft | 18 kts | 105° |
| 2026-05-08 12:38 | -3.77412 | -38.54081 | 95 ft | 85 kts | 105° |
| 2026-05-08 12:38 | -3.77619 | -38.53301 | 93 ft | 145 kts | 105° |
| 2026-05-08 12:38 | -3.77930 | -38.52164 | 305 ft | 175 kts | 107° |
| 2026-05-08 12:38 | -3.78253 | -38.50988 | 902 ft | 178 kts | 108° |
| 2026-05-08 12:39 | -3.78597 | -38.49780 | 1543 ft | 182 kts | 106° |
| 2026-05-08 12:39 | -3.78968 | -38.48472 | 1837 ft | 208 kts | 106° |
| 2026-05-08 12:39 | -3.79400 | -38.46996 | 2212 ft | 230 kts | 111° |
| 2026-05-08 12:39 | -3.80386 | -38.45649 | 2634 ft | 254 kts | 143° |
| 2026-05-08 12:40 | -3.82069 | -38.45028 | 3230 ft | 263 kts | 174° |
| 2026-05-08 12:40 | -3.83893 | -38.45384 | 3803 ft | 270 kts | 201° |
| 2026-05-08 12:40 | -3.85616 | -38.46160 | 4322 ft | 272 kts | 198° |
| 2026-05-08 12:40 | -3.87436 | -38.46777 | 4843 ft | 273 kts | 193° |
| 2026-05-08 12:41 | -3.89279 | -38.47279 | 5349 ft | 275 kts | 191° |
| 2026-05-08 12:41 | -3.91156 | -38.47745 | 5857 ft | 278 kts | 190° |
| 2026-05-08 12:41 | -3.93079 | -38.48209 | 6357 ft | 281 kts | 191° |
| 2026-05-08 12:41 | -3.94888 | -38.49056 | 6803 ft | 291 kts | 218° |
| 2026-05-08 12:42 | -3.96115 | -38.50712 | 7270 ft | 300 kts | 248° |
| 2026-05-08 12:42 | -3.96418 | -38.52778 | 7751 ft | 304 kts | 277° |
| 2026-05-08 12:42 | -3.96027 | -38.54858 | 8227 ft | 305 kts | 282° |
| 2026-05-08 12:42 | -3.95924 | -38.56991 | 8628 ft | 308 kts | 257° |
| 2026-05-08 12:43 | -3.96791 | -38.58942 | 9089 ft | 305 kts | 227° |
| 2026-05-08 12:43 | -3.96901 | -38.60846 | 9463 ft | 311 kts | 277° |
| 2026-05-08 12:43 | -3.96993 | -38.63035 | 9830 ft | 314 kts | 260° |
| 2026-05-08 12:43 | -3.97236 | -38.65215 | 10339 ft | 316 kts | 269° |
| 2026-05-08 12:44 | -3.96992 | -38.67464 | 10502 ft | 331 kts | 283° |
| 2026-05-08 12:44 | -3.96337 | -38.69783 | 10662 ft | 347 kts | 289° |
| 2026-05-08 12:44 | -3.95514 | -38.72134 | 10829 ft | 363 kts | 290° |
| 2026-05-08 12:44 | -3.94635 | -38.74538 | 10984 ft | 379 kts | 291° |
| 2026-05-08 12:45 | -3.93698 | -38.77104 | 11263 ft | 390 kts | 290° |
| 2026-05-08 12:45 | -3.92782 | -38.79630 | 11964 ft | 387 kts | 290° |
| 2026-05-08 12:45 | -3.91867 | -38.82165 | 12583 ft | 388 kts | 290° |
| 2026-05-08 12:45 | -3.90937 | -38.84744 | 13176 ft | 390 kts | 290° |
| 2026-05-08 12:46 | -3.90230 | -38.87414 | 13698 ft | 393 kts | 279° |
| 2026-05-08 12:46 | -3.89897 | -38.90138 | 14307 ft | 393 kts | 276° |
| 2026-05-08 12:46 | -3.89654 | -38.92858 | 14901 ft | 394 kts | 275° |
| 2026-05-08 12:46 | -3.89408 | -38.95628 | 15436 ft | 396 kts | 276° |
| 2026-05-08 12:47 | -3.89150 | -38.98365 | 16011 ft | 397 kts | 276° |
| 2026-05-08 12:47 | -3.88881 | -39.01084 | 16586 ft | 397 kts | 276° |
| 2026-05-08 12:47 | -3.88599 | -39.03880 | 17149 ft | 398 kts | 276° |
| 2026-05-08 12:47 | -3.88316 | -39.06649 | 17678 ft | 400 kts | 276° |
| 2026-05-08 12:48 | -3.88035 | -39.09405 | 18097 ft | 404 kts | 277° |
| 2026-05-08 12:48 | -3.87746 | -39.12238 | 18546 ft | 408 kts | 277° |
| 2026-05-08 12:48 | -3.87454 | -39.15089 | 18972 ft | 412 kts | 277° |
| 2026-05-08 12:48 | -3.87161 | -39.17966 | 19415 ft | 415 kts | 277° |
| 2026-05-08 12:49 | -3.86865 | -39.20852 | 19838 ft | 419 kts | 277° |
| 2026-05-08 12:49 | -3.86568 | -39.23761 | 20253 ft | 422 kts | 277° |
| 2026-05-08 12:49 | -3.86266 | -39.26712 | 20669 ft | 426 kts | 277° |
| 2026-05-08 12:49 | -3.85961 | -39.29692 | 21085 ft | 429 kts | 277° |
| 2026-05-08 12:50 | -3.85653 | -39.32711 | 21500 ft | 432 kts | 277° |
| 2026-05-08 12:50 | -3.85346 | -39.35712 | 21871 ft | 435 kts | 277° |
| 2026-05-08 12:50 | -3.85032 | -39.38775 | 22260 ft | 438 kts | 278° |
| 2026-05-08 12:50 | -3.84718 | -39.41838 | 22649 ft | 441 kts | 277° |
| 2026-05-08 12:51 | -3.84405 | -39.44895 | 23069 ft | 442 kts | 277° |
| 2026-05-08 12:51 | -3.83770 | -39.51083 | 23850 ft | 446 kts | 277° |
| 2026-05-08 12:51 | -3.83454 | -39.54162 | 24222 ft | 448 kts | 277° |
| 2026-05-08 12:52 | -3.83135 | -39.57273 | 24606 ft | 449 kts | 277° |
| 2026-05-08 12:52 | -3.82494 | -39.63532 | 25320 ft | 453 kts | 277° |
| 2026-05-08 12:52 | -3.82166 | -39.66716 | 25670 ft | 455 kts | 277° |
| 2026-05-08 12:53 | -3.81838 | -39.69882 | 25998 ft | 457 kts | 277° |
| 2026-05-08 12:53 | -3.81510 | -39.73052 | 26342 ft | 458 kts | 277° |
| 2026-05-08 12:53 | -3.81183 | -39.76219 | 26686 ft | 459 kts | 277° |
| 2026-05-08 12:53 | -3.80853 | -39.79427 | 27028 ft | 460 kts | 276° |
| 2026-05-08 12:54 | -3.80523 | -39.82622 | 27271 ft | 463 kts | 276° |
| 2026-05-08 12:54 | -3.80192 | -39.85839 | 27568 ft | 464 kts | 276° |
| 2026-05-08 12:54 | -3.79860 | -39.89061 | 27904 ft | 464 kts | 276° |
| 2026-05-08 12:54 | -3.79524 | -39.92325 | 28137 ft | 467 kts | 276° |
| 2026-05-08 12:55 | -3.79192 | -39.95549 | 28384 ft | 469 kts | 276° |
| 2026-05-08 12:55 | -3.78855 | -39.98830 | 28676 ft | 470 kts | 276° |
| 2026-05-08 12:55 | -3.78519 | -40.02091 | 28902 ft | 472 kts | 276° |
| 2026-05-08 12:55 | -3.78181 | -40.05366 | 29167 ft | 473 kts | 276° |
| 2026-05-08 12:56 | -3.77839 | -40.08686 | 29380 ft | 476 kts | 276° |
| 2026-05-08 12:56 | -3.77496 | -40.12016 | 29554 ft | 479 kts | 276° |
| 2026-05-08 12:56 | -3.77155 | -40.15321 | 29763 ft | 481 kts | 276° |
| 2026-05-08 12:56 | -3.76807 | -40.18687 | 30002 ft | 482 kts | 277° |
| 2026-05-08 12:57 | -3.76462 | -40.22026 | 30217 ft | 484 kts | 277° |
| 2026-05-08 12:57 | -3.76113 | -40.25399 | 30424 ft | 486 kts | 276° |
| 2026-05-08 12:57 | -3.75761 | -40.28806 | 30609 ft | 488 kts | 276° |
| 2026-05-08 12:57 | -3.75409 | -40.32210 | 30821 ft | 490 kts | 276° |
| 2026-05-08 12:58 | -3.75059 | -40.35603 | 31034 ft | 491 kts | 277° |
| 2026-05-08 12:58 | -3.74705 | -40.39022 | 31244 ft | 492 kts | 277° |
| 2026-05-08 12:58 | -3.74348 | -40.42473 | 31437 ft | 494 kts | 277° |
| 2026-05-08 12:58 | -3.73993 | -40.45899 | 31623 ft | 496 kts | 277° |
| 2026-05-08 12:59 | -3.73637 | -40.49332 | 31803 ft | 498 kts | 277° |
| 2026-05-08 12:59 | -3.73274 | -40.52836 | 31981 ft | 500 kts | 277° |
| 2026-05-08 12:59 | -3.72913 | -40.56327 | 32148 ft | 501 kts | 276° |
| 2026-05-08 12:59 | -3.72696 | -40.59838 | 32378 ft | 503 kts | 273° |
| 2026-05-08 13:00 | -3.72618 | -40.63338 | 32673 ft | 502 kts | 272° |
| 2026-05-08 13:00 | -3.72578 | -40.66806 | 32981 ft | 502 kts | 272° |
| 2026-05-08 13:00 | -3.72532 | -40.70335 | 33330 ft | 500 kts | 272° |
| 2026-05-08 13:00 | -3.72474 | -40.73823 | 33798 ft | 496 kts | 272° |
| 2026-05-08 13:01 | -3.72405 | -40.77263 | 34347 ft | 491 kts | 272° |
| 2026-05-08 13:01 | -3.72332 | -40.80623 | 34888 ft | 485 kts | 272° |
| 2026-05-08 13:01 | -3.72254 | -40.84008 | 35333 ft | 481 kts | 272° |
| 2026-05-08 13:01 | -3.72176 | -40.87344 | 35765 ft | 477 kts | 271° |
| 2026-05-08 13:02 | -3.72097 | -40.90669 | 35980 ft | 477 kts | 271° |
| 2026-05-08 13:02 | -3.72017 | -40.94022 | 36018 ft | 480 kts | 271° |
| 2026-05-08 13:02 | -3.71857 | -41.00731 | 36036 ft | 487 kts | 271° |
| 2026-05-08 13:03 | -3.71694 | -41.07565 | 36035 ft | 485 kts | 271° |
| 2026-05-08 13:03 | -3.71533 | -41.14283 | 36033 ft | 480 kts | 271° |
| 2026-05-08 13:04 | -3.71345 | -41.20983 | 36028 ft | 483 kts | 271° |
| 2026-05-08 13:04 | -3.71149 | -41.27748 | 36026 ft | 483 kts | 271° |
| 2026-05-08 13:05 | -3.70957 | -41.34444 | 36016 ft | 483 kts | 271° |
| 2026-05-08 13:05 | -3.70763 | -41.41204 | 35993 ft | 484 kts | 271° |
| 2026-05-08 13:06 | -3.70570 | -41.47941 | 35979 ft | 483 kts | 271° |
| 2026-05-08 13:06 | -3.70376 | -41.54689 | 35966 ft | 483 kts | 271° |
| 2026-05-08 13:07 | -3.70183 | -41.61413 | 35962 ft | 483 kts | 271° |
| 2026-05-08 13:07 | -3.69986 | -41.68176 | 35961 ft | 483 kts | 271° |
| 2026-05-08 13:08 | -3.69786 | -41.74920 | 35957 ft | 483 kts | 271° |
| 2026-05-08 13:08 | -3.69589 | -41.81634 | 35958 ft | 484 kts | 271° |
| 2026-05-08 13:09 | -3.69392 | -41.88364 | 35952 ft | 483 kts | 271° |
| 2026-05-08 13:09 | -3.69195 | -41.95117 | 35950 ft | 483 kts | 271° |
| 2026-05-08 13:10 | -3.68998 | -42.01866 | 35945 ft | 484 kts | 271° |
| 2026-05-08 13:10 | -3.68802 | -42.08630 | 35945 ft | 485 kts | 271° |
| 2026-05-08 13:11 | -3.68730 | -42.15402 | 35948 ft | 484 kts | 270° |
| 2026-05-08 13:11 | -3.68706 | -42.22168 | 35951 ft | 484 kts | 270° |
| 2026-05-08 13:12 | -3.68671 | -42.28916 | 35952 ft | 485 kts | 270° |
| 2026-05-08 13:12 | -3.68628 | -42.35654 | 35952 ft | 485 kts | 270° |
| 2026-05-08 13:13 | -3.68496 | -42.42403 | 35954 ft | 483 kts | 271° |
| 2026-05-08 13:13 | -3.68291 | -42.49196 | 35954 ft | 484 kts | 271° |
| 2026-05-08 13:14 | -3.68093 | -42.55950 | 35953 ft | 485 kts | 271° |
| 2026-05-08 13:14 | -3.67903 | -42.62685 | 35952 ft | 484 kts | 271° |
| 2026-05-08 13:15 | -3.67712 | -42.69463 | 35952 ft | 485 kts | 271° |
| 2026-05-08 13:15 | -3.67518 | -42.76243 | 35951 ft | 485 kts | 271° |
| 2026-05-08 13:16 | -3.67328 | -42.83006 | 35953 ft | 485 kts | 271° |
| 2026-05-08 13:16 | -3.67137 | -42.89786 | 35956 ft | 485 kts | 271° |
| 2026-05-08 13:17 | -3.66947 | -42.96534 | 35958 ft | 486 kts | 271° |
| 2026-05-08 13:17 | -3.66756 | -43.03302 | 35959 ft | 485 kts | 271° |
| 2026-05-08 13:18 | -3.66564 | -43.10083 | 35960 ft | 485 kts | 271° |
| 2026-05-08 13:18 | -3.66372 | -43.16843 | 35960 ft | 486 kts | 271° |
| 2026-05-08 13:19 | -3.66180 | -43.23620 | 35960 ft | 486 kts | 271° |
| 2026-05-08 13:19 | -3.65986 | -43.30391 | 35960 ft | 486 kts | 271° |
| 2026-05-08 13:20 | -3.65792 | -43.37206 | 35950 ft | 486 kts | 271° |
| 2026-05-08 13:20 | -3.65597 | -43.43983 | 35943 ft | 485 kts | 271° |
| 2026-05-08 13:21 | -3.65403 | -43.50715 | 35946 ft | 484 kts | 271° |
| 2026-05-08 13:21 | -3.65207 | -43.57506 | 35945 ft | 486 kts | 271° |
| 2026-05-08 13:22 | -3.65013 | -43.64251 | 35942 ft | 485 kts | 271° |
| 2026-05-08 13:22 | -3.64812 | -43.71030 | 35943 ft | 486 kts | 271° |
| 2026-05-08 13:23 | -3.64611 | -43.77817 | 35947 ft | 487 kts | 271° |
| 2026-05-08 13:23 | -3.64411 | -43.84611 | 35946 ft | 487 kts | 271° |
| 2026-05-08 13:24 | -3.64212 | -43.91411 | 35946 ft | 486 kts | 271° |
| 2026-05-08 13:24 | -3.64013 | -43.98188 | 35945 ft | 485 kts | 271° |
| 2026-05-08 13:25 | -3.63814 | -44.04950 | 35944 ft | 485 kts | 271° |
| 2026-05-08 13:25 | -3.63614 | -44.11750 | 35939 ft | 486 kts | 271° |
| 2026-05-08 13:26 | -3.63413 | -44.18521 | 35942 ft | 486 kts | 271° |
| 2026-05-08 13:26 | -3.63191 | -44.25342 | 35941 ft | 487 kts | 272° |
| 2026-05-08 13:27 | -3.62877 | -44.32099 | 35949 ft | 486 kts | 272° |
| 2026-05-08 13:27 | -3.62551 | -44.38898 | 35954 ft | 487 kts | 272° |
| 2026-05-08 13:28 | -3.62233 | -44.45669 | 35948 ft | 486 kts | 272° |
| 2026-05-08 13:28 | -3.61921 | -44.52430 | 35944 ft | 486 kts | 272° |
| 2026-05-08 13:29 | -3.61692 | -44.59255 | 35942 ft | 486 kts | 271° |
| 2026-05-08 13:29 | -3.61500 | -44.66044 | 35941 ft | 486 kts | 271° |
| 2026-05-08 13:30 | -3.61291 | -44.72822 | 35940 ft | 488 kts | 271° |
| 2026-05-08 13:30 | -3.61071 | -44.79596 | 35938 ft | 487 kts | 271° |
| 2026-05-08 13:31 | -3.60851 | -44.86399 | 35938 ft | 486 kts | 271° |
| 2026-05-08 13:31 | -3.60633 | -44.93169 | 35939 ft | 486 kts | 271° |
| 2026-05-08 13:32 | -3.60415 | -44.99934 | 35938 ft | 487 kts | 271° |
| 2026-05-08 13:32 | -3.60196 | -45.06719 | 35942 ft | 487 kts | 271° |
| 2026-05-08 13:33 | -3.59981 | -45.13534 | 35944 ft | 487 kts | 271° |
| 2026-05-08 13:33 | -3.59773 | -45.20309 | 35947 ft | 486 kts | 271° |
| 2026-05-08 13:34 | -3.59564 | -45.27125 | 35950 ft | 486 kts | 271° |
| 2026-05-08 13:34 | -3.59356 | -45.33866 | 35950 ft | 487 kts | 271° |
| 2026-05-08 13:35 | -3.59144 | -45.40682 | 35950 ft | 485 kts | 271° |
| 2026-05-08 13:35 | -3.58934 | -45.47444 | 35952 ft | 486 kts | 271° |
| 2026-05-08 13:36 | -3.58722 | -45.54258 | 35953 ft | 488 kts | 271° |
| 2026-05-08 13:36 | -3.58510 | -45.61051 | 35953 ft | 487 kts | 271° |
| 2026-05-08 13:37 | -3.58296 | -45.67849 | 35955 ft | 487 kts | 271° |
| 2026-05-08 13:37 | -3.58078 | -45.74635 | 35955 ft | 488 kts | 271° |
| 2026-05-08 13:38 | -3.57862 | -45.81427 | 35956 ft | 487 kts | 271° |
| 2026-05-08 13:38 | -3.57649 | -45.88183 | 35957 ft | 487 kts | 271° |
| 2026-05-08 13:39 | -3.57433 | -45.94994 | 35958 ft | 488 kts | 271° |
| 2026-05-08 13:39 | -3.57218 | -46.01809 | 35958 ft | 488 kts | 271° |
| 2026-05-08 13:40 | -3.57002 | -46.08610 | 35960 ft | 487 kts | 271° |
| 2026-05-08 13:40 | -3.56785 | -46.15418 | 35962 ft | 487 kts | 271° |
| 2026-05-08 13:41 | -3.56568 | -46.22218 | 35963 ft | 488 kts | 271° |
| 2026-05-08 13:41 | -3.56351 | -46.28995 | 35969 ft | 488 kts | 271° |
| 2026-05-08 13:42 | -3.56133 | -46.35817 | 35970 ft | 487 kts | 271° |
| 2026-05-08 13:42 | -3.55916 | -46.42582 | 35971 ft | 488 kts | 271° |
| 2026-05-08 13:43 | -3.55695 | -46.49437 | 35972 ft | 488 kts | 271° |
| 2026-05-08 13:43 | -3.55476 | -46.56220 | 35974 ft | 489 kts | 271° |
| 2026-05-08 13:44 | -3.55255 | -46.63029 | 35970 ft | 488 kts | 271° |
| 2026-05-08 13:44 | -3.55031 | -46.69877 | 35975 ft | 488 kts | 271° |
| 2026-05-08 13:45 | -3.54805 | -46.76681 | 35982 ft | 488 kts | 272° |
| 2026-05-08 13:45 | -3.54562 | -46.83476 | 35977 ft | 489 kts | 272° |
| 2026-05-08 13:46 | -3.54312 | -46.90302 | 35966 ft | 489 kts | 272° |
| 2026-05-08 13:46 | -3.54065 | -46.97125 | 35957 ft | 489 kts | 272° |
| 2026-05-08 13:47 | -3.53818 | -47.03942 | 35953 ft | 489 kts | 272° |
| 2026-05-08 13:47 | -3.53572 | -47.10740 | 35961 ft | 488 kts | 272° |
| 2026-05-08 13:48 | -3.53325 | -47.17526 | 35967 ft | 489 kts | 272° |
| 2026-05-08 13:48 | -3.53075 | -47.24395 | 35969 ft | 489 kts | 272° |
| 2026-05-08 13:49 | -3.52827 | -47.31203 | 35973 ft | 488 kts | 272° |
| 2026-05-08 13:49 | -3.52578 | -47.38007 | 35977 ft | 488 kts | 272° |
| 2026-05-08 13:50 | -3.52334 | -47.44818 | 35984 ft | 488 kts | 271° |
| 2026-05-08 13:50 | -3.52133 | -47.51608 | 35988 ft | 486 kts | 271° |
| 2026-05-08 13:51 | -3.51940 | -47.58359 | 35989 ft | 487 kts | 271° |
| 2026-05-08 13:51 | -3.51741 | -47.65171 | 35985 ft | 488 kts | 271° |
| 2026-05-08 13:52 | -3.51536 | -47.71973 | 35984 ft | 487 kts | 271° |
| 2026-05-08 13:52 | -3.51330 | -47.78778 | 35982 ft | 487 kts | 271° |
| 2026-05-08 13:53 | -3.51127 | -47.85562 | 35976 ft | 488 kts | 271° |
| 2026-05-08 13:53 | -3.50924 | -47.92355 | 35969 ft | 486 kts | 271° |
| 2026-05-08 13:54 | -3.50713 | -47.99153 | 35966 ft | 487 kts | 271° |
| 2026-05-08 13:54 | -3.50487 | -48.05897 | 35963 ft | 487 kts | 271° |
| 2026-05-08 13:55 | -3.50257 | -48.12698 | 35962 ft | 486 kts | 271° |
| 2026-05-08 13:56 | -3.49916 | -48.22876 | 35962 ft | 486 kts | 271° |
| 2026-05-08 13:56 | -3.49688 | -48.29667 | 35962 ft | 487 kts | 271° |
| 2026-05-08 13:57 | -3.49460 | -48.36451 | 35962 ft | 487 kts | 271° |
| 2026-05-08 13:57 | -3.49231 | -48.43240 | 35962 ft | 486 kts | 271° |
| 2026-05-08 13:58 | -3.48996 | -48.50032 | 35960 ft | 486 kts | 271° |
| 2026-05-08 13:58 | -3.48754 | -48.56817 | 35961 ft | 486 kts | 271° |
| 2026-05-08 13:59 | -3.48511 | -48.63623 | 35960 ft | 486 kts | 271° |
| 2026-05-08 13:59 | -3.48266 | -48.70421 | 35960 ft | 487 kts | 272° |
| 2026-05-08 14:00 | -3.48021 | -48.77173 | 35956 ft | 487 kts | 271° |
| 2026-05-08 14:00 | -3.47776 | -48.83982 | 35954 ft | 487 kts | 271° |
| 2026-05-08 14:01 | -3.47533 | -48.90752 | 35955 ft | 486 kts | 271° |
| 2026-05-08 14:01 | -3.47290 | -48.97540 | 35949 ft | 486 kts | 271° |
| 2026-05-08 14:02 | -3.47046 | -49.04335 | 35950 ft | 486 kts | 272° |
| 2026-05-08 14:02 | -3.46803 | -49.11078 | 35949 ft | 486 kts | 272° |
| 2026-05-08 14:03 | -3.46557 | -49.17870 | 35945 ft | 486 kts | 272° |
| 2026-05-08 14:03 | -3.46313 | -49.24633 | 35941 ft | 486 kts | 272° |
| 2026-05-08 14:04 | -3.46067 | -49.31417 | 35942 ft | 487 kts | 271° |
| 2026-05-08 14:04 | -3.45819 | -49.38247 | 35932 ft | 487 kts | 272° |
| 2026-05-08 14:05 | -3.45572 | -49.45027 | 35936 ft | 487 kts | 272° |
| 2026-05-08 14:05 | -3.45325 | -49.51807 | 35934 ft | 486 kts | 272° |
| 2026-05-08 14:06 | -3.45079 | -49.58575 | 35938 ft | 487 kts | 272° |
| 2026-05-08 14:06 | -3.44839 | -49.65350 | 35941 ft | 487 kts | 272° |
| 2026-05-08 14:07 | -3.44594 | -49.72174 | 35941 ft | 487 kts | 272° |
| 2026-05-08 14:07 | -3.44350 | -49.78965 | 35946 ft | 487 kts | 272° |
| 2026-05-08 14:08 | -3.44109 | -49.85733 | 35945 ft | 487 kts | 272° |
| 2026-05-08 14:08 | -3.43866 | -49.92546 | 35945 ft | 487 kts | 272° |
| 2026-05-08 14:09 | -3.43623 | -49.99334 | 35944 ft | 487 kts | 272° |
| 2026-05-08 14:09 | -3.43380 | -50.06128 | 35947 ft | 487 kts | 272° |
| 2026-05-08 14:10 | -3.43137 | -50.12901 | 35946 ft | 488 kts | 272° |
| 2026-05-08 14:10 | -3.42892 | -50.19722 | 35944 ft | 488 kts | 272° |
| 2026-05-08 14:11 | -3.42648 | -50.26521 | 35942 ft | 487 kts | 272° |
| 2026-05-08 14:11 | -3.42403 | -50.33306 | 35942 ft | 487 kts | 272° |
| 2026-05-08 14:12 | -3.42157 | -50.40124 | 35942 ft | 487 kts | 272° |
| 2026-05-08 14:12 | -3.41911 | -50.46918 | 35941 ft | 487 kts | 272° |
| 2026-05-08 14:13 | -3.41664 | -50.53729 | 35937 ft | 486 kts | 272° |
| 2026-05-08 14:13 | -3.41417 | -50.60504 | 35938 ft | 486 kts | 272° |
| 2026-05-08 14:14 | -3.41170 | -50.67288 | 35937 ft | 487 kts | 272° |
| 2026-05-08 14:14 | -3.40917 | -50.74084 | 35938 ft | 487 kts | 272° |
| 2026-05-08 14:15 | -3.40667 | -50.80844 | 35941 ft | 486 kts | 272° |
| 2026-05-08 14:15 | -3.40420 | -50.87579 | 35947 ft | 487 kts | 272° |
| 2026-05-08 14:16 | -3.40169 | -50.94426 | 35954 ft | 486 kts | 272° |
| 2026-05-08 14:16 | -3.39921 | -51.01163 | 35959 ft | 485 kts | 272° |
| 2026-05-08 14:17 | -3.39671 | -51.07952 | 35959 ft | 486 kts | 272° |
| 2026-05-08 14:17 | -3.39422 | -51.14704 | 35958 ft | 486 kts | 272° |
| 2026-05-08 14:18 | -3.39171 | -51.21494 | 35958 ft | 486 kts | 272° |
| 2026-05-08 14:18 | -3.38921 | -51.28233 | 35960 ft | 486 kts | 272° |
| 2026-05-08 14:19 | -3.38670 | -51.35010 | 35959 ft | 486 kts | 272° |
| 2026-05-08 14:19 | -3.38418 | -51.41778 | 35944 ft | 483 kts | 272° |
| 2026-05-08 14:20 | -3.38170 | -51.48414 | 35941 ft | 470 kts | 272° |
| 2026-05-08 14:20 | -3.37925 | -51.54997 | 35945 ft | 477 kts | 272° |
| 2026-05-08 14:21 | -3.37675 | -51.61694 | 35941 ft | 475 kts | 272° |
| 2026-05-08 14:21 | -3.37426 | -51.68303 | 35945 ft | 476 kts | 272° |
| 2026-05-08 14:22 | -3.37172 | -51.74936 | 35939 ft | 474 kts | 272° |
| 2026-05-08 14:22 | -3.36923 | -51.81486 | 35940 ft | 475 kts | 272° |
| 2026-05-08 14:23 | -3.36659 | -51.88155 | 35934 ft | 476 kts | 272° |
| 2026-05-08 14:23 | -3.36395 | -51.94751 | 35936 ft | 474 kts | 272° |
| 2026-05-08 14:24 | -3.36129 | -52.01393 | 35939 ft | 476 kts | 272° |
| 2026-05-08 14:24 | -3.35865 | -52.07980 | 35942 ft | 473 kts | 272° |
| 2026-05-08 14:25 | -3.35600 | -52.14601 | 35945 ft | 475 kts | 272° |
| 2026-05-08 14:25 | -3.35334 | -52.21231 | 35948 ft | 471 kts | 272° |
| 2026-05-08 14:26 | -3.35071 | -52.27776 | 35953 ft | 474 kts | 272° |
| 2026-05-08 14:26 | -3.34804 | -52.34399 | 35953 ft | 472 kts | 272° |
| 2026-05-08 14:27 | -3.34538 | -52.40984 | 35952 ft | 473 kts | 272° |
| 2026-05-08 14:27 | -3.34272 | -52.47567 | 35950 ft | 474 kts | 272° |
| 2026-05-08 14:28 | -3.34005 | -52.54167 | 35946 ft | 473 kts | 272° |
| 2026-05-08 14:28 | -3.33741 | -52.60775 | 35947 ft | 475 kts | 272° |
| 2026-05-08 14:29 | -3.33487 | -52.67411 | 35942 ft | 474 kts | 272° |
| 2026-05-08 14:29 | -3.33232 | -52.73979 | 35943 ft | 472 kts | 272° |
| 2026-05-08 14:30 | -3.32974 | -52.80612 | 35942 ft | 475 kts | 272° |
| 2026-05-08 14:30 | -3.32722 | -52.87159 | 35941 ft | 471 kts | 272° |
| 2026-05-08 14:31 | -3.32466 | -52.93800 | 35942 ft | 479 kts | 272° |
| 2026-05-08 14:31 | -3.32207 | -53.00561 | 35941 ft | 487 kts | 272° |
| 2026-05-08 14:32 | -3.31820 | -53.10636 | 35939 ft | 483 kts | 272° |
| 2026-05-08 14:32 | -3.31560 | -53.17376 | 35940 ft | 483 kts | 272° |
| 2026-05-08 14:33 | -3.31300 | -53.24116 | 35941 ft | 485 kts | 272° |
| 2026-05-08 14:33 | -3.31039 | -53.30880 | 35939 ft | 484 kts | 272° |
| 2026-05-08 14:34 | -3.30679 | -53.37617 | 35939 ft | 484 kts | 275° |
| 2026-05-08 14:34 | -3.30077 | -53.44333 | 35937 ft | 485 kts | 275° |
| 2026-05-08 14:35 | -3.29465 | -53.51092 | 35936 ft | 483 kts | 275° |
| 2026-05-08 14:35 | -3.28878 | -53.57818 | 35936 ft | 483 kts | 275° |
| 2026-05-08 14:36 | -3.28301 | -53.64523 | 35936 ft | 484 kts | 275° |
| 2026-05-08 14:36 | -3.27718 | -53.71270 | 35937 ft | 484 kts | 275° |
| 2026-05-08 14:37 | -3.27138 | -53.77976 | 35939 ft | 483 kts | 275° |
| 2026-05-08 14:37 | -3.26559 | -53.84692 | 35943 ft | 484 kts | 275° |
| 2026-05-08 14:38 | -3.25979 | -53.91427 | 35946 ft | 485 kts | 275° |
| 2026-05-08 14:38 | -3.25400 | -53.98152 | 35951 ft | 483 kts | 275° |
| 2026-05-08 14:39 | -3.24820 | -54.04876 | 35958 ft | 484 kts | 275° |
| 2026-05-08 14:39 | -3.24237 | -54.11636 | 35955 ft | 485 kts | 275° |
| 2026-05-08 14:40 | -3.23657 | -54.18352 | 35953 ft | 484 kts | 275° |
| 2026-05-08 14:40 | -3.23076 | -54.25070 | 35950 ft | 483 kts | 275° |
| 2026-05-08 14:41 | -3.22494 | -54.31803 | 35945 ft | 485 kts | 275° |
| 2026-05-08 14:41 | -3.21910 | -54.38544 | 35941 ft | 483 kts | 275° |
| 2026-05-08 14:42 | -3.21329 | -54.45253 | 35942 ft | 482 kts | 274° |
| 2026-05-08 14:42 | -3.20747 | -54.51964 | 35943 ft | 483 kts | 274° |
| 2026-05-08 14:43 | -3.20164 | -54.58682 | 35943 ft | 483 kts | 274° |
| 2026-05-08 14:43 | -3.19583 | -54.65382 | 35944 ft | 483 kts | 274° |
| 2026-05-08 14:44 | -3.18994 | -54.72106 | 35942 ft | 483 kts | 274° |
| 2026-05-08 14:44 | -3.18409 | -54.78801 | 35946 ft | 482 kts | 274° |
| 2026-05-08 14:45 | -3.17825 | -54.85491 | 35949 ft | 482 kts | 274° |
| 2026-05-08 14:45 | -3.17238 | -54.92228 | 35952 ft | 482 kts | 274° |
| 2026-05-08 14:46 | -3.16658 | -54.98888 | 35953 ft | 482 kts | 274° |
| 2026-05-08 14:46 | -3.16075 | -55.05579 | 35950 ft | 482 kts | 274° |
| 2026-05-08 14:47 | -3.15490 | -55.12275 | 35950 ft | 484 kts | 274° |
| 2026-05-08 14:47 | -3.14901 | -55.19017 | 35947 ft | 482 kts | 274° |
| 2026-05-08 14:48 | -3.14316 | -55.25711 | 35948 ft | 482 kts | 274° |
| 2026-05-08 14:48 | -3.13732 | -55.32392 | 35949 ft | 482 kts | 274° |
| 2026-05-08 14:49 | -3.13145 | -55.39088 | 35952 ft | 481 kts | 274° |
| 2026-05-08 14:49 | -3.12561 | -55.45761 | 35954 ft | 482 kts | 274° |
| 2026-05-08 14:50 | -3.11971 | -55.52490 | 35959 ft | 483 kts | 274° |
| 2026-05-08 14:50 | -3.11383 | -55.59194 | 35953 ft | 482 kts | 274° |
| 2026-05-08 14:51 | -3.10795 | -55.65888 | 35949 ft | 482 kts | 274° |
| 2026-05-08 14:51 | -3.10202 | -55.72587 | 35943 ft | 482 kts | 274° |
| 2026-05-08 14:52 | -3.09316 | -55.82617 | 35939 ft | 480 kts | 274° |
| 2026-05-08 14:53 | -3.08728 | -55.89288 | 35938 ft | 481 kts | 274° |
| 2026-05-08 14:53 | -3.08138 | -55.95996 | 35939 ft | 481 kts | 274° |
| 2026-05-08 14:54 | -3.07548 | -56.02687 | 35936 ft | 481 kts | 274° |
| 2026-05-08 14:54 | -3.06957 | -56.09381 | 35939 ft | 481 kts | 274° |
| 2026-05-08 14:55 | -3.06368 | -56.16060 | 35937 ft | 482 kts | 274° |
| 2026-05-08 14:55 | -3.05776 | -56.22756 | 35937 ft | 482 kts | 274° |
| 2026-05-08 14:56 | -3.05184 | -56.29447 | 35937 ft | 480 kts | 274° |
| 2026-05-08 14:56 | -3.04593 | -56.36126 | 35936 ft | 480 kts | 274° |
| 2026-05-08 14:57 | -3.04002 | -56.42812 | 35936 ft | 481 kts | 274° |
| 2026-05-08 14:57 | -3.03412 | -56.49469 | 35934 ft | 481 kts | 274° |
| 2026-05-08 14:58 | -3.02819 | -56.56160 | 35933 ft | 482 kts | 274° |
| 2026-05-08 14:58 | -3.02223 | -56.62877 | 35931 ft | 482 kts | 274° |
| 2026-05-08 14:59 | -3.01627 | -56.69560 | 35930 ft | 483 kts | 274° |
| 2026-05-08 14:59 | -3.00727 | -56.79617 | 35929 ft | 481 kts | 274° |
| 2026-05-08 15:00 | -3.00134 | -56.86286 | 35927 ft | 479 kts | 274° |
| 2026-05-08 15:00 | -2.99541 | -56.92950 | 35928 ft | 481 kts | 274° |
| 2026-05-08 15:01 | -2.98945 | -56.99641 | 35928 ft | 482 kts | 274° |
| 2026-05-08 15:01 | -2.98345 | -57.06370 | 35927 ft | 481 kts | 274° |
| 2026-05-08 15:02 | -2.97752 | -57.13021 | 35931 ft | 480 kts | 274° |
| 2026-05-08 15:02 | -2.97157 | -57.19680 | 35942 ft | 480 kts | 274° |
| 2026-05-08 15:03 | -2.96561 | -57.26352 | 35954 ft | 479 kts | 274° |
| 2026-05-08 15:03 | -2.95965 | -57.33030 | 35957 ft | 478 kts | 274° |
| 2026-05-08 15:04 | -2.95373 | -57.39647 | 35956 ft | 479 kts | 274° |
| 2026-05-08 15:04 | -2.94776 | -57.46315 | 35958 ft | 479 kts | 274° |
| 2026-05-08 15:05 | -2.94180 | -57.52976 | 35959 ft | 478 kts | 274° |
| 2026-05-08 15:05 | -2.93584 | -57.59629 | 35956 ft | 479 kts | 274° |
| 2026-05-08 15:06 | -2.92991 | -57.66235 | 35960 ft | 478 kts | 274° |
| 2026-05-08 15:06 | -2.92389 | -57.72890 | 35964 ft | 478 kts | 274° |
| 2026-05-08 15:07 | -2.91789 | -57.79540 | 35956 ft | 478 kts | 274° |
| 2026-05-08 15:07 | -2.91196 | -57.86136 | 35951 ft | 478 kts | 274° |
| 2026-05-08 15:08 | -2.90700 | -57.91655 | 35946 ft | 478 kts | 274° |
| 2026-05-08 15:08 | -2.90003 | -57.99399 | 35949 ft | 478 kts | 274° |
| 2026-05-08 15:09 | -2.89406 | -58.06052 | 35948 ft | 477 kts | 274° |
| 2026-05-08 15:09 | -2.88813 | -58.12661 | 35949 ft | 477 kts | 274° |
| 2026-05-08 15:10 | -2.88214 | -58.19305 | 35950 ft | 477 kts | 274° |
| 2026-05-08 15:10 | -2.87619 | -58.25906 | 35950 ft | 476 kts | 274° |
| 2026-05-08 15:11 | -2.87024 | -58.32497 | 35951 ft | 477 kts | 274° |
| 2026-05-08 15:11 | -2.86426 | -58.39112 | 35952 ft | 478 kts | 274° |
| 2026-05-08 15:12 | -2.85825 | -58.45760 | 35955 ft | 478 kts | 274° |
| 2026-05-08 15:12 | -2.85493 | -58.52345 | 35961 ft | 477 kts | 268° |
| 2026-05-08 15:13 | -2.85833 | -58.59002 | 35923 ft | 477 kts | 266° |
| 2026-05-08 15:13 | -2.86033 | -58.62332 | 35699 ft | 478 kts | 266° |
| 2026-05-08 15:13 | -2.86221 | -58.65642 | 35076 ft | 471 kts | 266° |
| 2026-05-08 15:14 | -2.86394 | -58.68872 | 34100 ft | 460 kts | 267° |
| 2026-05-08 15:14 | -2.86555 | -58.72058 | 32541 ft | 460 kts | 267° |
| 2026-05-08 15:14 | -2.86711 | -58.75222 | 31148 ft | 461 kts | 267° |
| 2026-05-08 15:14 | -2.86867 | -58.78441 | 29740 ft | 462 kts | 266° |
| 2026-05-08 15:15 | -2.87023 | -58.81648 | 28354 ft | 463 kts | 266° |
| 2026-05-08 15:15 | -2.87178 | -58.84838 | 26997 ft | 463 kts | 266° |
| 2026-05-08 15:15 | -2.87334 | -58.88030 | 25645 ft | 464 kts | 267° |
| 2026-05-08 15:15 | -2.87491 | -58.91235 | 24294 ft | 464 kts | 267° |
| 2026-05-08 15:16 | -2.87648 | -58.94479 | 22954 ft | 464 kts | 267° |
| 2026-05-08 15:16 | -2.87804 | -58.97686 | 21697 ft | 466 kts | 267° |
| 2026-05-08 15:16 | -2.87962 | -59.00967 | 20973 ft | 465 kts | 267° |
| 2026-05-08 15:16 | -2.88116 | -59.04161 | 20518 ft | 458 kts | 267° |
| 2026-05-08 15:17 | -2.88270 | -59.07350 | 20037 ft | 452 kts | 267° |
| 2026-05-08 15:17 | -2.88421 | -59.10486 | 19558 ft | 447 kts | 267° |
| 2026-05-08 15:17 | -2.88569 | -59.13537 | 19085 ft | 441 kts | 267° |
| 2026-05-08 15:17 | -2.88719 | -59.16634 | 18598 ft | 436 kts | 267° |
| 2026-05-08 15:18 | -2.88865 | -59.19648 | 18118 ft | 431 kts | 267° |
| 2026-05-08 15:18 | -2.89010 | -59.22624 | 17637 ft | 426 kts | 267° |
| 2026-05-08 15:18 | -2.89151 | -59.25552 | 17161 ft | 421 kts | 267° |
| 2026-05-08 15:18 | -2.89292 | -59.28474 | 16682 ft | 416 kts | 267° |
| 2026-05-08 15:19 | -2.89431 | -59.31348 | 16207 ft | 412 kts | 267° |
| 2026-05-08 15:19 | -2.89571 | -59.34237 | 15718 ft | 408 kts | 267° |
| 2026-05-08 15:19 | -2.89706 | -59.37044 | 15243 ft | 404 kts | 267° |
| 2026-05-08 15:19 | -2.89843 | -59.39881 | 14751 ft | 400 kts | 267° |
| 2026-05-08 15:20 | -2.89976 | -59.42643 | 14267 ft | 397 kts | 267° |
| 2026-05-08 15:20 | -2.90109 | -59.45387 | 13785 ft | 393 kts | 267° |
| 2026-05-08 15:20 | -2.90240 | -59.48121 | 13291 ft | 390 kts | 267° |
| 2026-05-08 15:20 | -2.90371 | -59.50814 | 12803 ft | 387 kts | 267° |
| 2026-05-08 15:21 | -2.90502 | -59.53523 | 12381 ft | 381 kts | 267° |
| 2026-05-08 15:21 | -2.90625 | -59.56115 | 12095 ft | 372 kts | 267° |
| 2026-05-08 15:21 | -2.90748 | -59.58686 | 11983 ft | 357 kts | 267° |
| 2026-05-08 15:21 | -2.90865 | -59.61134 | 11955 ft | 345 kts | 267° |
| 2026-05-08 15:22 | -2.90979 | -59.63524 | 11951 ft | 342 kts | 267° |
| 2026-05-08 15:22 | -2.91092 | -59.65901 | 11944 ft | 343 kts | 267° |
| 2026-05-08 15:22 | -2.91205 | -59.68314 | 11946 ft | 345 kts | 267° |
| 2026-05-08 15:22 | -2.91317 | -59.70694 | 11948 ft | 344 kts | 267° |
| 2026-05-08 15:23 | -2.91431 | -59.73092 | 11942 ft | 343 kts | 267° |
| 2026-05-08 15:23 | -2.91545 | -59.75477 | 11940 ft | 344 kts | 267° |
| 2026-05-08 15:23 | -2.91658 | -59.77879 | 11942 ft | 341 kts | 267° |
| 2026-05-08 15:23 | -2.91772 | -59.80270 | 11947 ft | 344 kts | 267° |
| 2026-05-08 15:24 | -2.91885 | -59.82662 | 11938 ft | 341 kts | 267° |
| 2026-05-08 15:24 | -2.91996 | -59.85025 | 11934 ft | 343 kts | 267° |
| 2026-05-08 15:24 | -2.92111 | -59.87453 | 11569 ft | 346 kts | 267° |
| 2026-05-08 15:24 | -2.92223 | -59.89841 | 11044 ft | 335 kts | 267° |
| 2026-05-08 15:25 | -2.92332 | -59.92139 | 10504 ft | 326 kts | 267° |
| 2026-05-08 15:25 | -2.92437 | -59.94373 | 9954 ft | 319 kts | 267° |
| 2026-05-08 15:25 | -2.92542 | -59.96592 | 9398 ft | 312 kts | 267° |
| 2026-05-08 15:25 | -2.92644 | -59.98756 | 8928 ft | 304 kts | 267° |
| 2026-05-08 15:26 | -2.92742 | -60.00832 | 8566 ft | 296 kts | 267° |
| 2026-05-08 15:26 | -2.92839 | -60.02885 | 8216 ft | 292 kts | 267° |
| 2026-05-08 15:26 | -2.92935 | -60.04903 | 8039 ft | 289 kts | 267° |
| 2026-05-08 15:26 | -2.93029 | -60.06906 | 7969 ft | 276 kts | 267° |
| 2026-05-08 15:27 | -2.93116 | -60.08778 | 7840 ft | 268 kts | 267° |
| 2026-05-08 15:27 | -2.93204 | -60.10664 | 7520 ft | 269 kts | 267° |
| 2026-05-08 15:27 | -2.93293 | -60.12553 | 7206 ft | 269 kts | 267° |
| 2026-05-08 15:27 | -2.93380 | -60.14423 | 6854 ft | 269 kts | 267° |
| 2026-05-08 15:28 | -2.93467 | -60.16294 | 6513 ft | 267 kts | 267° |
| 2026-05-08 15:28 | -2.93554 | -60.18164 | 6129 ft | 266 kts | 267° |
| 2026-05-08 15:28 | -2.93639 | -60.19992 | 5735 ft | 265 kts | 268° |
| 2026-05-08 15:28 | -2.93864 | -60.21826 | 5368 ft | 262 kts | 249° |
| 2026-05-08 15:29 | -2.94886 | -60.23293 | 5003 ft | 256 kts | 216° |
| 2026-05-08 15:29 | -2.96391 | -60.24183 | 4533 ft | 249 kts | 202° |
| 2026-05-08 15:29 | -2.98008 | -60.24802 | 4029 ft | 246 kts | 195° |
| 2026-05-08 15:29 | -2.99660 | -60.25247 | 3544 ft | 242 kts | 190° |
| 2026-05-08 15:30 | -3.01310 | -60.25538 | 3198 ft | 232 kts | 184° |
| 2026-05-08 15:30 | -3.02828 | -60.25307 | 3050 ft | 210 kts | 152° |
| 2026-05-08 15:30 | -3.03825 | -60.24412 | 2991 ft | 182 kts | 109° |
| 2026-05-08 15:30 | -3.03918 | -60.23258 | 2984 ft | 162 kts | 80° |
| 2026-05-08 15:31 | -3.03826 | -60.22112 | 2983 ft | 166 kts | 85° |
| 2026-05-08 15:31 | -3.03805 | -60.20955 | 2883 ft | 167 kts | 87° |
| 2026-05-08 15:31 | -3.03811 | -60.19788 | 2733 ft | 165 kts | 87° |
| 2026-05-08 15:31 | -3.03820 | -60.18642 | 2547 ft | 166 kts | 87° |
| 2026-05-08 15:32 | -3.03826 | -60.17482 | 2343 ft | 165 kts | 87° |
| 2026-05-08 15:32 | -3.03831 | -60.16337 | 2137 ft | 161 kts | 87° |
| 2026-05-08 15:32 | -3.03836 | -60.15259 | 1946 ft | 147 kts | 87° |
| 2026-05-08 15:32 | -3.03838 | -60.14233 | 1789 ft | 147 kts | 86° |
| 2026-05-08 15:33 | -3.03840 | -60.13225 | 1565 ft | 143 kts | 86° |
| 2026-05-08 15:33 | -3.03841 | -60.12237 | 1393 ft | 144 kts | 86° |
| 2026-05-08 15:33 | -3.03843 | -60.11223 | 1219 ft | 145 kts | 87° |
| 2026-05-08 15:33 | -3.03845 | -60.10210 | 1030 ft | 144 kts | 88° |
| 2026-05-08 15:34 | -3.03847 | -60.09185 | 839 ft | 148 kts | 88° |
| 2026-05-08 15:34 | -3.03848 | -60.08154 | 651 ft | 149 kts | 88° |
| 2026-05-08 15:34 | -3.03852 | -60.07104 | 444 ft | 149 kts | 89° |
| 2026-05-08 15:34 | -3.03855 | -60.06074 | 261 ft | 149 kts | 89° |
| 2026-05-08 15:35 | -3.03859 | -60.05114 | 245 ft | 109 kts | 90° |
| 2026-05-08 15:35 | -3.03860 | -60.04570 | 243 ft | 50 kts | 90° |
| 2026-05-08 15:35 | -3.03859 | -60.04249 | 243 ft | 42 kts | 90° |
| 2026-05-08 15:35 | -3.03861 | -60.03969 | 243 ft | 38 kts | 90° |
| 2026-05-08 15:36 | -3.03833 | -60.03785 | 243 ft | 21 kts | 39° |
| 2026-05-08 15:36 | -3.03743 | -60.03783 | 243 ft | 20 kts | 331° |
| 2026-05-08 15:36 | -3.03660 | -60.03935 | 243 ft | 18 kts | 285° |
| 2026-05-08 15:36 | -3.03626 | -60.04057 | 242 ft | 17 kts | 286° |
| 2026-05-08 15:37 | -3.03592 | -60.04172 | 242 ft | 16 kts | 287° |
| 2026-05-08 15:37 | -3.03534 | -60.04283 | 242 ft | 19 kts | 308° |
| 2026-05-08 15:37 | -3.03436 | -60.04361 | 242 ft | 10 kts | 339° |
| 2026-05-08 15:37 | -3.03368 | -60.04384 | 242 ft | 9 kts | 344° |
| 2026-05-08 15:38 | -3.03337 | -60.04424 | 242 ft | 8 kts | 264° |
| 2026-05-08 15:38 | -3.03337 | -60.04483 | 242 ft | 7 kts | 302° |
| 2026-05-08 15:38 | -3.03304 | -60.04495 | 242 ft | 2 kts | 356° |
| 2026-05-08 15:38 | -3.03294 | -60.04496 | 242 ft | 0 kts | 353° |
| 2026-05-08 15:39 | -3.03286 | -60.04498 | 242 ft | 0 kts | 351° |
| 2026-05-08 15:39 | -3.03281 | -60.04498 | 242 ft | 0 kts | 351° |
| 2026-05-08 15:39 | -3.03279 | -60.04499 | 242 ft | 0 kts | 351° |